Lebanon, Tennessee
Current Conditions -  °F | °C
As of 11:53 PM on Sunday 19 Oct 2014 (Local Time) from KBNA Reporting Station
Broken Clouds Broken Clouds  
Wind Chill: 45°   Ceiling: 20000
Heat Index: 48°   Visibility: 10mi
Dew Point: 46°   Wind: 6mph
Humidity: 93%   Direction: 170°S
Pressure: 30.09"   Gusts: NA
Location:  36.21°N, 86.29°W
Report Text: KBNA 200453Z 17005KT 10SM BKN200 09/08 A3009 RMK AO2 SLP186 T00890078
Loading
Personal Weather Stations






























Interactive Weather Map
Tropical Storm Tracking
New forecast layout! Learn more

10-Day Weather Forecast

Advertisements
Track Severe Weather on mobile